createdAt,value
2023-02-28T00:01:32.583Z,6.90
2023-02-28T00:04:00.240Z,7.38
2023-02-28T00:06:28.021Z,6.60
2023-02-28T00:08:55.328Z,7.55
2023-02-28T00:11:22.710Z,6.40
2023-02-28T00:13:50.032Z,7.45
2023-02-28T00:16:20.410Z,6.72
2023-02-28T00:18:48.600Z,6.65
2023-02-28T00:21:16.946Z,6.70
2023-02-28T00:23:44.748Z,7.30
2023-02-28T00:26:12.301Z,7.38
2023-02-28T00:28:41.012Z,7.65
2023-02-28T00:31:08.216Z,7.32
2023-02-28T00:33:36.269Z,7.32
2023-02-28T00:36:09.549Z,7.00
2023-02-28T00:38:38.268Z,6.20
2023-02-28T00:41:06.081Z,6.68
2023-02-28T00:43:35.273Z,7.97
2023-02-28T00:46:02.934Z,6.97
2023-02-28T00:48:31.607Z,7.72
2023-02-28T00:50:58.748Z,7.10
2023-02-28T00:53:26.253Z,6.88
2023-02-28T00:55:53.719Z,6.72
2023-02-28T00:58:21.050Z,7.40
2023-02-28T01:00:51.466Z,6.95
2023-02-28T01:03:20.020Z,7.00
2023-02-28T01:05:47.716Z,7.13
2023-02-28T01:08:15.785Z,7.47
2023-02-28T01:10:43.534Z,8.52
2023-02-28T01:13:11.211Z,7.63
2023-02-28T01:15:41.753Z,8.30
2023-02-28T01:18:08.864Z,7.95
2023-02-28T01:20:38.339Z,7.80
2023-02-28T01:23:05.454Z,7.50
2023-02-28T01:25:38.227Z,7.90
2023-02-28T01:28:06.931Z,7.47
2023-02-28T01:30:35.598Z,7.65
2023-02-28T01:33:02.929Z,8.50
2023-02-28T01:35:33.829Z,7.45
2023-02-28T01:38:09.537Z,7.80
2023-02-28T01:40:42.985Z,6.85
2023-02-28T01:43:22.142Z,7.78
2023-02-28T01:45:49.363Z,7.53
2023-02-28T01:48:16.706Z,7.82
2023-02-28T01:50:46.185Z,7.07
2023-02-28T01:53:23.130Z,6.95
2023-02-28T01:55:53.334Z,6.18
2023-02-28T01:58:21.717Z,5.65
2023-02-28T02:00:49.436Z,7.68
2023-02-28T02:03:20.234Z,6.15
2023-02-28T02:05:48.720Z,6.40
2023-02-28T02:08:27.645Z,7.28
2023-02-28T02:11:02.626Z,6.55
2023-02-28T02:14:00.698Z,6.35
2023-02-28T02:16:39.914Z,5.93
2023-02-28T02:19:22.925Z,6.63
2023-02-28T02:22:27.266Z,5.95
2023-02-28T02:25:09.617Z,5.97
2023-02-28T02:28:06.358Z,6.70
2023-02-28T02:30:58.303Z,5.90
2023-02-28T02:33:40.636Z,5.60
2023-02-28T02:36:23.820Z,5.47
2023-02-28T02:38:55.460Z,5.85
2023-02-28T02:41:37.592Z,6.00
2023-02-28T02:44:22.639Z,6.88
2023-02-28T02:46:56.326Z,6.68
2023-02-28T02:49:29.251Z,5.80
2023-02-28T02:51:59.750Z,5.55
2023-02-28T02:54:31.647Z,6.88
2023-02-28T02:57:04.252Z,5.78
2023-02-28T02:59:32.772Z,6.07
2023-02-28T03:02:05.294Z,5.82
2023-02-28T03:04:41.801Z,5.85
2023-02-28T03:07:08.991Z,5.72
2023-02-28T03:09:39.500Z,5.68
2023-02-28T03:12:12.889Z,6.15
2023-02-28T03:15:00.391Z,5.97
2023-02-28T03:18:00.569Z,6.18
2023-02-28T03:20:30.722Z,4.95
2023-02-28T03:23:01.877Z,6.18
2023-02-28T03:25:41.110Z,6.05
2023-02-28T03:28:23.544Z,7.07
2023-02-28T03:30:54.815Z,5.72
2023-02-28T03:33:28.158Z,5.20
2023-02-28T03:36:11.010Z,6.28
2023-02-28T03:38:46.004Z,5.82
2023-02-28T03:41:20.468Z,5.80
2023-02-28T03:43:55.248Z,6.15
2023-02-28T03:46:26.746Z,6.45
2023-02-28T03:49:22.339Z,6.28
2023-02-28T03:51:52.133Z,6.40
2023-02-28T03:54:36.225Z,5.97
2023-02-28T03:59:48.321Z,8.90
2023-02-28T04:02:15.611Z,6.88
2023-02-28T04:04:46.120Z,7.13
2023-02-28T04:07:13.443Z,6.15
2023-02-28T04:09:40.654Z,7.32
2023-02-28T04:12:08.233Z,7.65
2023-02-28T04:14:35.386Z,7.07
2023-02-28T04:17:02.568Z,6.93
2023-02-28T04:19:29.752Z,6.85
2023-02-28T04:21:56.820Z,7.15
2023-02-28T04:24:26.629Z,6.55
2023-02-28T04:26:56.098Z,7.00
2023-02-28T04:29:28.927Z,7.20
2023-02-28T04:32:00.530Z,5.97
2023-02-28T04:34:30.408Z,6.72
2023-02-28T04:37:12.018Z,6.70
2023-02-28T04:39:41.046Z,6.72
2023-02-28T04:42:08.472Z,6.07
2023-02-28T04:44:35.593Z,6.85
2023-02-28T04:47:02.688Z,6.97
2023-02-28T04:49:29.825Z,6.70
2023-02-28T04:51:56.903Z,7.35
2023-02-28T04:54:24.089Z,6.78
2023-02-28T04:56:51.301Z,6.47
2023-02-28T04:59:18.754Z,6.90
2023-02-28T05:01:50.364Z,7.35
2023-02-28T05:04:18.043Z,6.75
2023-02-28T05:06:45.438Z,6.78
2023-02-28T05:09:12.687Z,6.03
2023-02-28T05:11:41.002Z,7.10
2023-02-28T05:14:12.769Z,7.32
2023-02-28T05:16:40.322Z,7.22
2023-02-28T05:19:07.640Z,7.13
2023-02-28T05:21:49.036Z,7.30
2023-02-28T05:24:16.167Z,7.72
2023-02-28T05:26:44.039Z,7.22
2023-02-28T05:29:11.477Z,7.90
2023-02-28T05:31:38.872Z,7.32
2023-02-28T05:34:06.514Z,8.10
2023-02-28T05:36:33.979Z,7.53
2023-02-28T05:39:01.134Z,7.20
2023-02-28T05:41:28.648Z,6.95
2023-02-28T05:43:56.273Z,8.23
2023-02-28T05:46:23.584Z,7.72
2023-02-28T05:48:51.699Z,7.40
2023-02-28T05:51:18.969Z,7.88
2023-02-28T05:53:46.156Z,7.60
2023-02-28T05:56:13.308Z,6.88
2023-02-28T05:58:40.394Z,8.30
2023-02-28T06:01:25.735Z,7.45
2023-02-28T06:03:53.085Z,8.30
2023-02-28T06:06:20.266Z,8.82
2023-02-28T06:08:47.478Z,7.75
2023-02-28T06:11:15.113Z,8.32
2023-02-28T06:13:42.621Z,9.35
2023-02-28T06:16:12.070Z,8.65
2023-02-28T06:18:40.092Z,8.43
2023-02-28T06:21:07.210Z,7.38
2023-02-28T06:23:34.309Z,9.50
2023-02-28T06:26:01.531Z,8.95
2023-02-28T06:28:28.750Z,8.88
2023-02-28T06:30:55.880Z,9.52
2023-02-28T06:33:23.052Z,9.00
2023-02-28T06:35:53.419Z,7.95
2023-02-28T06:38:21.394Z,7.75
2023-02-28T06:40:56.905Z,8.73
2023-02-28T06:43:24.809Z,8.45
2023-02-28T06:45:55.674Z,9.30
2023-02-28T06:48:22.873Z,7.65
2023-02-28T06:50:49.970Z,8.52
2023-02-28T06:53:17.184Z,7.85
2023-02-28T06:55:44.493Z,8.45
2023-02-28T06:58:19.960Z,8.32
2023-02-28T07:00:47.300Z,8.65
2023-02-28T07:03:16.334Z,8.25
2023-02-28T07:05:43.421Z,8.35
2023-02-28T07:08:10.582Z,7.63
2023-02-28T07:10:41.107Z,9.27
2023-02-28T07:13:10.082Z,8.48
2023-02-28T07:15:41.133Z,9.38
2023-02-28T07:18:08.877Z,8.68
2023-02-28T07:20:36.293Z,7.72
2023-02-28T07:23:03.367Z,7.82
2023-02-28T07:25:30.479Z,8.02
2023-02-28T07:27:58.003Z,8.40
2023-02-28T07:30:25.113Z,7.90
2023-02-28T07:32:52.320Z,7.78
2023-02-28T07:35:20.303Z,7.90
2023-02-28T07:37:48.066Z,8.32
2023-02-28T07:40:15.641Z,8.65
2023-02-28T07:42:43.071Z,7.63
2023-02-28T07:45:12.623Z,8.55
2023-02-28T07:47:40.189Z,7.55
2023-02-28T07:50:10.010Z,7.85
2023-02-28T07:52:38.107Z,7.32
2023-02-28T07:55:06.605Z,7.43
2023-02-28T07:57:36.739Z,9.00
2023-02-28T08:00:10.285Z,7.65
2023-02-28T08:02:41.494Z,7.95
2023-02-28T08:05:09.316Z,7.10
2023-02-28T08:07:36.594Z,7.43
2023-02-28T08:10:06.536Z,7.22
2023-02-28T08:12:33.709Z,6.65
2023-02-28T08:15:00.814Z,8.25
2023-02-28T08:17:27.914Z,6.70
2023-02-28T08:19:55.087Z,7.20
2023-02-28T08:22:22.188Z,7.78
2023-02-28T08:24:50.187Z,8.10
2023-02-28T08:27:18.269Z,7.28
2023-02-28T08:29:45.327Z,7.53
2023-02-28T08:32:23.733Z,7.38
2023-02-28T08:34:56.265Z,8.65
2023-02-28T08:37:23.368Z,7.35
2023-02-28T08:39:50.457Z,7.10
2023-02-28T08:42:17.588Z,8.07
2023-02-28T08:44:44.784Z,7.97
2023-02-28T08:47:11.912Z,7.68
2023-02-28T08:49:39.160Z,8.45
2023-02-28T08:52:07.072Z,6.50
2023-02-28T08:54:35.263Z,6.97
2023-02-28T08:57:03.402Z,7.45
2023-02-28T08:59:33.302Z,8.43
2023-02-28T09:02:00.619Z,6.72
2023-02-28T09:04:27.773Z,6.40
2023-02-28T09:06:54.912Z,7.25
2023-02-28T09:09:22.078Z,8.25
2023-02-28T09:11:49.152Z,7.97
2023-02-28T09:14:18.321Z,7.45
2023-02-28T09:16:45.706Z,9.35
2023-02-28T09:19:13.635Z,7.72
2023-02-28T09:21:41.260Z,8.90
2023-02-28T09:24:08.905Z,7.20
2023-02-28T09:26:43.248Z,8.65
2023-02-28T09:29:18.762Z,7.47
2023-02-28T09:31:46.239Z,7.22
2023-02-28T09:34:13.414Z,8.18
2023-02-28T09:36:45.756Z,7.40
2023-02-28T09:39:16.656Z,7.87
2023-02-28T09:41:51.112Z,7.00
2023-02-28T09:44:31.425Z,7.72
2023-02-28T09:47:02.558Z,8.32
2023-02-28T09:49:38.575Z,7.72
2023-02-28T09:52:12.216Z,8.18
2023-02-28T09:54:40.023Z,7.05
2023-02-28T09:57:10.986Z,7.72
2023-02-28T09:59:49.365Z,7.80
2023-02-28T10:03:01.602Z,7.75
2023-02-28T10:05:54.649Z,7.80
2023-02-28T10:08:46.093Z,7.80
2023-02-28T10:11:17.655Z,7.65
2023-02-28T10:14:02.575Z,6.35
2023-02-28T10:16:36.764Z,7.47
2023-02-28T10:19:13.652Z,7.75
2023-02-28T10:21:50.510Z,7.97
2023-02-28T10:24:28.222Z,7.00
2023-02-28T10:27:20.384Z,7.80
2023-02-28T10:29:50.662Z,7.82
2023-02-28T10:32:20.937Z,6.40
2023-02-28T10:35:15.628Z,6.72
2023-02-28T10:37:45.486Z,7.15
2023-02-28T10:40:36.414Z,7.60
2023-02-28T10:43:15.444Z,7.32
2023-02-28T10:46:02.945Z,6.68
2023-02-28T10:48:40.090Z,7.22
2023-02-28T10:51:16.169Z,7.10
2023-02-28T10:54:01.060Z,8.32
2023-02-28T10:56:29.650Z,6.85
2023-02-28T10:59:04.286Z,6.95
2023-02-28T11:01:31.742Z,6.95
2023-02-28T11:04:00.026Z,6.90
2023-02-28T11:06:32.565Z,7.18
2023-02-28T11:09:01.234Z,7.50
2023-02-28T11:11:32.572Z,6.82
2023-02-28T11:14:06.593Z,6.18
2023-02-28T11:16:38.770Z,7.65
2023-02-28T11:19:17.453Z,7.07
2023-02-28T11:21:57.944Z,8.27
2023-02-28T11:24:59.829Z,6.82
2023-02-28T11:27:48.314Z,7.85
2023-02-28T11:30:39.585Z,7.32
2023-02-28T11:33:30.225Z,6.85
2023-02-28T11:36:11.042Z,6.63
2023-02-28T11:38:38.655Z,6.82
2023-02-28T11:41:24.649Z,7.03
2023-02-28T11:44:30.246Z,7.10
2023-02-28T11:47:12.019Z,6.90
2023-02-28T11:50:05.709Z,7.18
2023-02-28T11:52:38.485Z,7.60
2023-02-28T11:55:17.132Z,6.63
2023-02-28T11:58:21.383Z,7.25
2023-02-28T12:01:08.206Z,6.95
2023-02-28T12:03:45.923Z,7.50
2023-02-28T12:06:26.544Z,8.43
2023-02-28T12:09:36.002Z,8.07
2023-02-28T12:12:32.821Z,8.15
2023-02-28T12:15:17.870Z,8.77
2023-02-28T12:17:59.925Z,8.18
2023-02-28T12:20:37.450Z,8.38
2023-02-28T12:23:37.834Z,7.90
2023-02-28T12:26:22.006Z,8.05
2023-02-28T12:28:54.451Z,7.75
2023-02-28T12:31:25.818Z,7.80
2023-02-28T12:33:56.854Z,8.77
2023-02-28T12:36:26.303Z,7.32
2023-02-28T12:39:09.913Z,9.50
2023-02-28T12:41:58.834Z,10.57
2023-02-28T12:44:36.056Z,8.73
2023-02-28T12:47:06.425Z,8.88
2023-02-28T12:49:47.299Z,7.88
2023-02-28T12:52:24.267Z,8.90
2023-02-28T12:54:58.413Z,7.72
2023-02-28T12:57:43.262Z,7.32
2023-02-28T13:00:18.287Z,6.70
2023-02-28T13:03:05.240Z,6.38
2023-02-28T13:06:07.323Z,7.28
2023-02-28T13:09:01.652Z,7.32
2023-02-28T13:14:17.477Z,6.68
2023-02-28T13:17:15.057Z,6.88
2023-02-28T13:19:56.521Z,6.50
2023-02-28T13:22:26.441Z,6.90
2023-02-28T13:24:55.446Z,7.28
2023-02-28T13:27:25.735Z,6.40
2023-02-28T13:29:54.050Z,7.22
2023-02-28T13:32:30.895Z,7.60
2023-02-28T13:34:58.454Z,7.25
2023-02-28T13:37:27.000Z,7.78
2023-02-28T13:40:00.278Z,7.05
2023-02-28T13:42:50.700Z,7.45
2023-02-28T13:45:23.016Z,7.07
2023-02-28T13:48:01.244Z,7.75
2023-02-28T13:50:28.296Z,7.85
2023-02-28T13:53:16.461Z,8.77
2023-02-28T13:55:43.505Z,7.43
2023-02-28T13:58:29.192Z,7.63
2023-02-28T14:01:27.125Z,7.90
2023-02-28T14:04:06.448Z,7.57
2023-02-28T14:06:36.530Z,7.38
2023-02-28T14:09:13.154Z,7.10
2023-02-28T14:11:43.403Z,7.78
2023-02-28T14:14:36.309Z,10.10
2023-02-28T14:17:13.565Z,10.38
2023-02-28T14:19:44.580Z,10.15
2023-02-28T14:22:38.229Z,10.65
2023-02-28T14:25:24.308Z,9.82
2023-02-28T14:28:13.641Z,10.18
2023-02-28T14:30:43.618Z,10.10
2023-02-28T14:33:19.617Z,11.45
2023-02-28T14:36:02.034Z,11.32
2023-02-28T14:38:45.957Z,10.73
2023-02-28T14:41:19.680Z,11.15
2023-02-28T14:46:25.217Z,10.60
2023-02-28T14:48:52.631Z,11.50
2023-02-28T14:51:22.788Z,11.25
2023-02-28T14:53:57.166Z,11.70
2023-02-28T14:56:37.720Z,12.20
2023-02-28T14:59:06.199Z,11.52
2023-02-28T15:01:34.582Z,13.07
2023-02-28T15:04:19.533Z,13.25
2023-02-28T15:06:46.648Z,12.25
2023-02-28T15:09:19.367Z,13.43
2023-02-28T15:11:49.739Z,12.52
2023-02-28T15:14:20.875Z,11.07
2023-02-28T15:16:57.196Z,12.45
2023-02-28T15:19:31.627Z,12.23
2023-02-28T15:22:15.432Z,11.48
2023-02-28T15:24:47.666Z,11.45
2023-02-28T15:27:22.093Z,11.95
2023-02-28T15:29:52.882Z,11.93
2023-02-28T15:32:31.259Z,11.80
2023-02-28T15:35:00.465Z,12.52
2023-02-28T15:37:30.610Z,12.07
2023-02-28T15:40:08.729Z,12.60
2023-02-28T15:42:35.937Z,12.07
2023-02-28T15:45:03.094Z,14.52
2023-02-28T15:47:31.556Z,13.35
2023-02-28T15:50:04.979Z,13.00
2023-02-28T15:52:41.712Z,13.15
2023-02-28T15:55:20.061Z,13.50
2023-02-28T15:57:51.740Z,13.23
2023-02-28T16:00:24.251Z,13.60
2023-02-28T16:02:52.126Z,13.40
2023-02-28T16:05:29.218Z,12.23
2023-02-28T16:07:58.063Z,13.35
2023-02-28T16:10:28.485Z,14.27
2023-02-28T16:12:57.394Z,14.18
2023-02-28T16:15:30.197Z,13.88
2023-02-28T16:17:58.210Z,13.90
2023-02-28T16:20:31.571Z,14.98
2023-02-28T16:23:02.391Z,14.13
2023-02-28T16:25:35.944Z,14.60
2023-02-28T16:28:03.793Z,14.02
2023-02-28T16:30:34.009Z,14.45
2023-02-28T16:33:01.236Z,14.07
2023-02-28T16:35:28.380Z,13.52
2023-02-28T16:37:55.570Z,14.48
2023-02-28T16:40:26.798Z,15.43
2023-02-28T16:43:00.163Z,14.18
2023-02-28T16:45:29.624Z,16.77
2023-02-28T16:47:56.993Z,16.58
2023-02-28T16:50:29.934Z,17.42
2023-02-28T16:52:57.269Z,16.42
2023-02-28T16:55:25.589Z,16.88
2023-02-28T16:57:55.937Z,15.18
2023-02-28T17:00:24.046Z,18.58
2023-02-28T17:02:52.137Z,19.63
2023-02-28T17:05:19.879Z,17.95
2023-02-28T17:07:47.703Z,16.17
2023-02-28T17:10:23.951Z,20.48
2023-02-28T17:12:51.223Z,20.27
2023-02-28T17:15:20.191Z,21.48
2023-02-28T17:17:49.648Z,20.15
2023-02-28T17:20:25.626Z,20.05
2023-02-28T17:22:54.099Z,21.23
2023-02-28T17:25:21.701Z,21.70
2023-02-28T17:27:49.722Z,24.48
2023-02-28T17:30:22.362Z,22.50
2023-02-28T17:32:49.709Z,20.33
2023-02-28T17:35:17.219Z,22.95
2023-02-28T17:37:44.330Z,21.63
2023-02-28T17:40:16.680Z,21.58
2023-02-28T17:42:45.124Z,21.08
2023-02-28T17:45:13.033Z,21.17
2023-02-28T17:47:40.755Z,22.05
2023-02-28T17:50:14.756Z,23.02
2023-02-28T17:52:41.867Z,21.42
2023-02-28T17:55:10.256Z,22.38
2023-02-28T17:57:37.340Z,23.85
2023-02-28T18:00:07.605Z,23.80
2023-02-28T18:02:38.589Z,24.60
2023-02-28T18:05:06.448Z,22.20
2023-02-28T18:07:33.729Z,24.02
2023-02-28T18:10:00.809Z,23.45
2023-02-28T18:12:27.962Z,23.45
2023-02-28T18:14:55.044Z,22.85
2023-02-28T18:17:22.170Z,22.45
2023-02-28T18:19:49.342Z,21.42
2023-02-28T18:22:17.537Z,22.35
2023-02-28T18:24:44.694Z,21.40
2023-02-28T18:27:12.438Z,22.15
2023-02-28T18:29:41.711Z,23.95
2023-02-28T18:32:09.982Z,23.38
2023-02-28T18:34:37.351Z,23.15
2023-02-28T18:37:04.509Z,24.77
2023-02-28T18:39:32.282Z,24.65
2023-02-28T18:41:59.424Z,25.42
2023-02-28T18:44:26.522Z,23.27
2023-02-28T18:46:53.676Z,21.98
2023-02-28T18:49:21.097Z,23.73
2023-02-28T18:51:48.524Z,23.77
2023-02-28T18:54:16.669Z,24.48
2023-02-28T18:56:44.220Z,25.00
2023-02-28T18:59:11.807Z,23.85
2023-02-28T19:01:39.973Z,25.05
2023-02-28T19:04:07.154Z,24.90
2023-02-28T19:06:34.986Z,24.85
2023-02-28T19:09:03.875Z,23.52
2023-02-28T19:11:32.207Z,23.40
2023-02-28T19:13:59.576Z,24.33
2023-02-28T19:16:30.860Z,26.00
2023-02-28T19:18:58.276Z,23.95
2023-02-28T19:21:26.143Z,24.83
2023-02-28T19:23:53.607Z,25.20
2023-02-28T19:26:22.929Z,23.33
2023-02-28T19:28:50.070Z,22.40
2023-02-28T19:31:21.066Z,23.77
2023-02-28T19:33:48.543Z,22.08
2023-02-28T19:36:16.262Z,24.50
2023-02-28T19:38:44.771Z,25.92
2023-02-28T19:41:14.125Z,25.00
2023-02-28T19:43:41.347Z,23.40
2023-02-28T19:46:09.616Z,23.65
2023-02-28T19:48:37.056Z,25.73
2023-02-28T19:51:10.002Z,25.38
2023-02-28T19:53:38.367Z,25.13
2023-02-28T19:56:06.280Z,23.70
2023-02-28T19:58:34.380Z,23.30
2023-02-28T20:01:13.239Z,24.27
2023-02-28T20:03:41.132Z,24.67
2023-02-28T20:06:13.676Z,24.33
2023-02-28T20:08:41.393Z,23.52
2023-02-28T20:11:11.491Z,25.33
2023-02-28T20:13:38.968Z,24.13
2023-02-28T20:16:09.635Z,24.20
2023-02-28T20:18:38.447Z,24.30
2023-02-28T20:21:08.653Z,24.85
2023-02-28T20:23:38.354Z,22.00
2023-02-28T20:26:05.708Z,22.23
2023-02-28T20:28:33.002Z,22.67
2023-02-28T20:31:00.818Z,22.08
2023-02-28T20:33:28.105Z,23.63
2023-02-28T20:35:59.859Z,22.17
2023-02-28T20:38:28.033Z,21.15
2023-02-28T20:40:56.345Z,23.25
2023-02-28T20:43:23.968Z,21.08
2023-02-28T20:45:52.729Z,21.35
2023-02-28T20:48:19.907Z,21.42
2023-02-28T20:50:51.889Z,22.35
2023-02-28T20:53:19.606Z,21.50
2023-02-28T20:55:55.745Z,22.23
2023-02-28T20:58:25.464Z,22.17
2023-02-28T21:01:02.977Z,20.02
2023-02-28T21:03:30.497Z,20.45
2023-02-28T21:06:03.785Z,21.77
2023-02-28T21:08:31.059Z,21.52
2023-02-28T21:10:58.164Z,20.73
2023-02-28T21:13:26.715Z,19.95
2023-02-28T21:15:54.126Z,21.50
2023-02-28T21:18:21.310Z,21.05
2023-02-28T21:20:48.396Z,20.38
2023-02-28T21:23:15.512Z,21.02
2023-02-28T21:25:42.587Z,21.95
2023-02-28T21:28:09.669Z,19.83
2023-02-28T21:30:37.695Z,21.55
2023-02-28T21:33:04.846Z,20.10
2023-02-28T21:35:31.986Z,19.95
2023-02-28T21:37:59.123Z,21.23
2023-02-28T21:40:26.204Z,19.98
2023-02-28T21:42:53.359Z,18.35
2023-02-28T21:45:20.464Z,20.20
2023-02-28T21:47:47.578Z,19.90
2023-02-28T21:50:14.633Z,19.30
2023-02-28T21:52:41.804Z,19.75
2023-02-28T21:55:09.101Z,18.13
2023-02-28T21:57:36.261Z,18.80
2023-02-28T22:00:04.819Z,19.02
2023-02-28T22:02:39.320Z,19.73
2023-02-28T22:05:06.556Z,17.33
2023-02-28T22:07:33.692Z,19.48
2023-02-28T22:10:00.778Z,18.23
2023-02-28T22:12:30.720Z,19.25
2023-02-28T22:14:57.789Z,18.27
2023-02-28T22:17:24.839Z,16.83
2023-02-28T22:19:51.948Z,18.20
2023-02-28T22:22:19.033Z,17.70
2023-02-28T22:24:46.119Z,17.40
2023-02-28T22:27:13.212Z,16.63
2023-02-28T22:29:40.377Z,15.38
2023-02-28T22:32:09.803Z,15.18
2023-02-28T22:34:37.235Z,15.80
2023-02-28T22:37:04.311Z,14.50
2023-02-28T22:39:31.389Z,14.68
2023-02-28T22:41:59.321Z,13.90
2023-02-28T22:44:26.437Z,13.32
2023-02-28T22:46:54.710Z,13.68
2023-02-28T22:49:22.160Z,13.73
2023-02-28T22:51:49.289Z,12.00
2023-02-28T22:54:16.664Z,11.65
2023-02-28T22:56:43.778Z,11.75
2023-02-28T22:59:14.492Z,13.63
2023-02-28T23:01:43.904Z,13.85
2023-02-28T23:04:14.734Z,12.75
2023-02-28T23:06:43.680Z,12.27
2023-02-28T23:09:21.548Z,14.95
2023-02-28T23:11:50.366Z,12.88
2023-02-28T23:14:19.002Z,12.02
2023-02-28T23:16:55.463Z,12.93
2023-02-28T23:19:30.812Z,13.40
2023-02-28T23:21:59.841Z,13.40
2023-02-28T23:24:29.595Z,12.00
2023-02-28T23:26:59.396Z,14.77
2023-02-28T23:29:27.697Z,14.02
2023-02-28T23:31:55.731Z,12.25
2023-02-28T23:34:30.330Z,12.63
2023-02-28T23:37:00.330Z,12.77
2023-02-28T23:39:29.101Z,12.63
2023-02-28T23:41:57.228Z,12.32
2023-02-28T23:44:24.419Z,12.00
2023-02-28T23:46:53.082Z,12.48
2023-02-28T23:49:21.816Z,13.35
2023-02-28T23:51:50.206Z,13.80
2023-02-28T23:54:18.584Z,12.10
2023-02-28T23:56:46.064Z,13.13
2023-02-28T23:59:13.257Z,13.18
